sensor_id;sensor_type;location;lat;lon;timestamp;P1;durP1;ratioP1;P2;durP2;ratioP2
45318;SDS011;31057;48.498;32.260;2023-02-03T00:14:42;42.20;;;26.95;;
45318;SDS011;31057;48.498;32.260;2023-02-03T00:16:44;40.40;;;27.52;;
45318;SDS011;31057;48.498;32.260;2023-02-03T00:20:48;41.22;;;24.58;;
45318;SDS011;31057;48.498;32.260;2023-02-03T00:22:50;37.78;;;24.45;;
45318;SDS011;31057;48.498;32.260;2023-02-03T00:24:52;39.22;;;26.10;;
45318;SDS011;31057;48.498;32.260;2023-02-03T00:26:54;41.38;;;25.95;;
45318;SDS011;31057;48.498;32.260;2023-02-03T00:28:57;42.42;;;26.70;;
45318;SDS011;31057;48.498;32.260;2023-02-03T00:31:00;40.25;;;26.02;;
45318;SDS011;31057;48.498;32.260;2023-02-03T00:33:03;44.45;;;27.77;;
45318;SDS011;31057;48.498;32.260;2023-02-03T00:35:05;38.60;;;24.67;;
45318;SDS011;31057;48.498;32.260;2023-02-03T00:37:07;40.38;;;26.02;;
45318;SDS011;31057;48.498;32.260;2023-02-03T00:39:12;40.67;;;25.48;;
45318;SDS011;31057;48.498;32.260;2023-02-03T00:41:15;42.20;;;26.45;;
45318;SDS011;31057;48.498;32.260;2023-02-03T00:43:18;43.67;;;26.58;;
45318;SDS011;31057;48.498;32.260;2023-02-03T00:45:20;40.22;;;26.63;;
45318;SDS011;31057;48.498;32.260;2023-02-03T00:49:24;42.05;;;25.17;;
45318;SDS011;31057;48.498;32.260;2023-02-03T00:53:28;43.78;;;26.35;;
45318;SDS011;31057;48.498;32.260;2023-02-03T00:55:30;44.03;;;25.50;;
45318;SDS011;31057;48.498;32.260;2023-02-03T00:57:32;41.80;;;25.85;;
45318;SDS011;31057;48.498;32.260;2023-02-03T01:01:35;45.75;;;26.08;;
45318;SDS011;31057;48.498;32.260;2023-02-03T01:03:38;43.95;;;26.52;;
45318;SDS011;31057;48.498;32.260;2023-02-03T01:05:40;44.50;;;25.58;;
45318;SDS011;31057;48.498;32.260;2023-02-03T01:07:42;47.83;;;27.90;;
45318;SDS011;31057;48.498;32.260;2023-02-03T01:09:43;43.63;;;28.20;;
45318;SDS011;31057;48.498;32.260;2023-02-03T01:13:47;41.92;;;25.30;;
45318;SDS011;31057;48.498;32.260;2023-02-03T01:15:50;44.70;;;27.85;;
45318;SDS011;31057;48.498;32.260;2023-02-03T01:17:54;43.45;;;27.02;;
45318;SDS011;31057;48.498;32.260;2023-02-03T01:19:57;45.38;;;27.02;;
45318;SDS011;31057;48.498;32.260;2023-02-03T01:21:59;46.10;;;27.92;;
45318;SDS011;31057;48.498;32.260;2023-02-03T01:24:02;43.70;;;27.98;;
45318;SDS011;31057;48.498;32.260;2023-02-03T01:26:07;44.58;;;28.02;;
45318;SDS011;31057;48.498;32.260;2023-02-03T01:28:11;47.90;;;29.30;;
45318;SDS011;31057;48.498;32.260;2023-02-03T01:30:14;46.58;;;28.80;;
45318;SDS011;31057;48.498;32.260;2023-02-03T01:34:17;52.85;;;29.25;;
45318;SDS011;31057;48.498;32.260;2023-02-03T01:38:22;46.15;;;27.80;;
45318;SDS011;31057;48.498;32.260;2023-02-03T01:40:27;45.60;;;29.65;;
45318;SDS011;31057;48.498;32.260;2023-02-03T01:42:31;51.08;;;31.45;;
45318;SDS011;31057;48.498;32.260;2023-02-03T01:44:37;48.20;;;30.95;;
45318;SDS011;31057;48.498;32.260;2023-02-03T01:46:47;55.05;;;31.58;;
45318;SDS011;31057;48.498;32.260;2023-02-03T01:48:52;48.55;;;29.25;;
45318;SDS011;31057;48.498;32.260;2023-02-03T01:50:59;47.55;;;30.77;;
45318;SDS011;31057;48.498;32.260;2023-02-03T01:53:04;48.95;;;29.95;;
45318;SDS011;31057;48.498;32.260;2023-02-03T01:55:10;46.53;;;29.73;;
45318;SDS011;31057;48.498;32.260;2023-02-03T01:57:16;47.63;;;31.05;;
45318;SDS011;31057;48.498;32.260;2023-02-03T01:59:24;49.70;;;30.27;;
45318;SDS011;31057;48.498;32.260;2023-02-03T04:14:43;47.80;;;32.47;;
45318;SDS011;31057;48.498;32.260;2023-02-03T04:16:45;45.50;;;29.15;;
45318;SDS011;31057;48.498;32.260;2023-02-03T04:18:47;51.53;;;28.73;;
45318;SDS011;31057;48.498;32.260;2023-02-03T04:20:49;45.45;;;29.40;;
45318;SDS011;31057;48.498;32.260;2023-02-03T04:24:52;48.20;;;30.00;;
45318;SDS011;31057;48.498;32.260;2023-02-03T04:26:54;48.60;;;28.63;;
45318;SDS011;31057;48.498;32.260;2023-02-03T04:28:56;53.03;;;31.17;;
45318;SDS011;31057;48.498;32.260;2023-02-03T04:31:01;51.40;;;31.73;;
45318;SDS011;31057;48.498;32.260;2023-02-03T04:33:03;49.08;;;30.15;;
45318;SDS011;31057;48.498;32.260;2023-02-03T04:35:05;50.42;;;32.25;;
45318;SDS011;31057;48.498;32.260;2023-02-03T04:37:07;65.57;;;38.20;;
45318;SDS011;31057;48.498;32.260;2023-02-03T04:39:09;51.13;;;31.98;;
45318;SDS011;31057;48.498;32.260;2023-02-03T04:41:11;53.97;;;33.25;;
45318;SDS011;31057;48.498;32.260;2023-02-03T04:43:13;57.88;;;37.60;;
45318;SDS011;31057;48.498;32.260;2023-02-03T04:45:17;57.15;;;33.63;;
45318;SDS011;31057;48.498;32.260;2023-02-03T04:49:20;53.03;;;31.52;;
45318;SDS011;31057;48.498;32.260;2023-02-03T04:51:22;53.88;;;33.53;;
45318;SDS011;31057;48.498;32.260;2023-02-03T04:55:26;59.50;;;33.75;;
45318;SDS011;31057;48.498;32.260;2023-02-03T04:57:28;58.25;;;34.88;;
45318;SDS011;31057;48.498;32.260;2023-02-03T05:01:32;56.25;;;37.60;;
45318;SDS011;31057;48.498;32.260;2023-02-03T05:03:34;81.65;;;57.72;;
45318;SDS011;31057;48.498;32.260;2023-02-03T05:05:39;59.88;;;39.50;;
45318;SDS011;31057;48.498;32.260;2023-02-03T05:07:41;55.35;;;34.13;;
45318;SDS011;31057;48.498;32.260;2023-02-03T05:09:42;60.00;;;36.08;;
45318;SDS011;31057;48.498;32.260;2023-02-03T05:11:44;61.95;;;37.97;;
45318;SDS011;31057;48.498;32.260;2023-02-03T05:13:46;58.30;;;35.03;;
45318;SDS011;31057;48.498;32.260;2023-02-03T05:17:51;58.03;;;34.95;;
45318;SDS011;31057;48.498;32.260;2023-02-03T05:19:53;57.80;;;33.72;;
45318;SDS011;31057;48.498;32.260;2023-02-03T05:21:55;60.17;;;33.75;;
45318;SDS011;31057;48.498;32.260;2023-02-03T05:26:00;59.40;;;33.45;;
45318;SDS011;31057;48.498;32.260;2023-02-03T05:30:04;53.13;;;32.53;;
45318;SDS011;31057;48.498;32.260;2023-02-03T05:32:07;59.88;;;34.80;;
45318;SDS011;31057;48.498;32.260;2023-02-03T05:36:11;62.58;;;34.78;;
45318;SDS011;31057;48.498;32.260;2023-02-03T05:38:13;62.25;;;35.13;;
45318;SDS011;31057;48.498;32.260;2023-02-03T05:42:35;64.57;;;35.42;;
45318;SDS011;31057;48.498;32.260;2023-02-03T05:44:37;65.95;;;38.38;;
45318;SDS011;31057;48.498;32.260;2023-02-03T05:46:39;67.53;;;39.33;;
45318;SDS011;31057;48.498;32.260;2023-02-03T05:50:42;73.55;;;39.70;;
45318;SDS011;31057;48.498;32.260;2023-02-03T05:54:46;78.15;;;40.88;;
45318;SDS011;31057;48.498;32.260;2023-02-03T05:56:48;63.78;;;37.58;;
45318;SDS011;31057;48.498;32.260;2023-02-03T05:58:50;65.88;;;39.00;;
45318;SDS011;31057;48.498;32.260;2023-02-03T06:00:53;63.78;;;35.85;;
45318;SDS011;31057;48.498;32.260;2023-02-03T08:13:57;50.38;;;37.28;;
45318;SDS011;31057;48.498;32.260;2023-02-03T08:18:01;46.92;;;26.83;;
45318;SDS011;31057;48.498;32.260;2023-02-03T08:20:04;37.28;;;25.70;;
45318;SDS011;31057;48.498;32.260;2023-02-03T08:22:06;63.53;;;39.70;;
45318;SDS011;31057;48.498;32.260;2023-02-03T08:24:08;71.32;;;43.50;;
45318;SDS011;31057;48.498;32.260;2023-02-03T08:26:12;74.63;;;49.03;;
45318;SDS011;31057;48.498;32.260;2023-02-03T08:28:14;53.22;;;36.83;;
45318;SDS011;31057;48.498;32.260;2023-02-03T08:30:16;52.90;;;33.97;;
45318;SDS011;31057;48.498;32.260;2023-02-03T08:32:19;45.88;;;31.42;;
45318;SDS011;31057;48.498;32.260;2023-02-03T08:34:22;40.35;;;29.08;;
45318;SDS011;31057;48.498;32.260;2023-02-03T08:36:24;48.95;;;31.90;;
45318;SDS011;31057;48.498;32.260;2023-02-03T08:40:27;39.22;;;27.63;;
45318;SDS011;31057;48.498;32.260;2023-02-03T08:42:30;37.95;;;27.42;;
45318;SDS011;31057;48.498;32.260;2023-02-03T08:44:32;37.13;;;27.38;;
45318;SDS011;31057;48.498;32.260;2023-02-03T08:46:34;47.92;;;31.40;;
45318;SDS011;31057;48.498;32.260;2023-02-03T08:48:37;48.42;;;30.85;;
45318;SDS011;31057;48.498;32.260;2023-02-03T08:52:42;42.38;;;25.80;;
45318;SDS011;31057;48.498;32.260;2023-02-03T08:54:44;41.42;;;28.05;;
45318;SDS011;31057;48.498;32.260;2023-02-03T08:56:47;44.80;;;29.85;;
45318;SDS011;31057;48.498;32.260;2023-02-03T08:58:49;36.47;;;27.45;;
45318;SDS011;31057;48.498;32.260;2023-02-03T09:00:51;38.28;;;26.25;;
45318;SDS011;31057;48.498;32.260;2023-02-03T09:02:53;35.58;;;26.70;;
45318;SDS011;31057;48.498;32.260;2023-02-03T09:04:55;34.92;;;27.20;;
45318;SDS011;31057;48.498;32.260;2023-02-03T09:09:00;38.72;;;26.33;;
45318;SDS011;31057;48.498;32.260;2023-02-03T09:11:06;40.05;;;27.75;;
45318;SDS011;31057;48.498;32.260;2023-02-03T09:13:11;40.33;;;27.75;;
45318;SDS011;31057;48.498;32.260;2023-02-03T09:15:13;44.25;;;27.10;;
45318;SDS011;31057;48.498;32.260;2023-02-03T09:19:19;37.47;;;25.30;;
45318;SDS011;31057;48.498;32.260;2023-02-03T09:21:21;42.22;;;27.42;;
45318;SDS011;31057;48.498;32.260;2023-02-03T09:23:43;37.58;;;25.63;;
45318;SDS011;31057;48.498;32.260;2023-02-03T09:25:45;40.83;;;27.60;;
45318;SDS011;31057;48.498;32.260;2023-02-03T09:27:49;39.88;;;26.50;;
45318;SDS011;31057;48.498;32.260;2023-02-03T09:29:51;38.42;;;26.73;;
45318;SDS011;31057;48.498;32.260;2023-02-03T09:31:53;37.13;;;26.83;;
45318;SDS011;31057;48.498;32.260;2023-02-03T09:35:58;36.10;;;24.63;;
45318;SDS011;31057;48.498;32.260;2023-02-03T09:38:02;43.72;;;28.20;;
45318;SDS011;31057;48.498;32.260;2023-02-03T09:40:04;38.28;;;26.13;;
45318;SDS011;31057;48.498;32.260;2023-02-03T09:46:53;39.95;;;29.23;;
45318;SDS011;31057;48.498;32.260;2023-02-03T09:49:07;43.45;;;29.75;;
45318;SDS011;31057;48.498;32.260;2023-02-03T09:51:18;43.30;;;29.15;;
45318;SDS011;31057;48.498;32.260;2023-02-03T09:53:27;47.67;;;30.55;;
45318;SDS011;31057;48.498;32.260;2023-02-03T09:55:41;43.45;;;29.90;;
45318;SDS011;31057;48.498;32.260;2023-02-03T09:57:54;38.22;;;28.30;;
45318;SDS011;31057;48.498;32.260;2023-02-03T10:00:09;41.47;;;29.30;;
45318;SDS011;31057;48.498;32.260;2023-02-03T12:13:52;29.48;;;20.15;;
45318;SDS011;31057;48.498;32.260;2023-02-03T12:20:35;25.58;;;17.50;;
45318;SDS011;31057;48.498;32.260;2023-02-03T12:25:34;20.65;;;14.50;;
45318;SDS011;31057;48.498;32.260;2023-02-03T12:30:21;25.40;;;22.42;;
45318;SDS011;31057;48.498;32.260;2023-02-03T12:32:33;25.65;;;20.67;;
45318;SDS011;31057;48.498;32.260;2023-02-03T12:34:49;26.48;;;16.95;;
45318;SDS011;31057;48.498;32.260;2023-02-03T12:37:21;25.58;;;21.15;;
45318;SDS011;31057;48.498;32.260;2023-02-03T12:41:43;25.35;;;20.55;;
45318;SDS011;31057;48.498;32.260;2023-02-03T12:43:59;27.70;;;21.23;;
45318;SDS011;31057;48.498;32.260;2023-02-03T12:48:36;32.92;;;25.40;;
45318;SDS011;31057;48.498;32.260;2023-02-03T12:50:47;30.23;;;22.58;;
45318;SDS011;31057;48.498;32.260;2023-02-03T12:52:53;25.02;;;19.85;;
45318;SDS011;31057;48.498;32.260;2023-02-03T12:57:32;39.42;;;29.23;;
45318;SDS011;31057;48.498;32.260;2023-02-03T12:59:48;43.15;;;30.98;;
45318;SDS011;31057;48.498;32.260;2023-02-03T13:02:16;37.78;;;28.67;;
45318;SDS011;31057;48.498;32.260;2023-02-03T13:04:35;46.45;;;33.78;;
45318;SDS011;31057;48.498;32.260;2023-02-03T13:06:59;47.80;;;31.13;;
45318;SDS011;31057;48.498;32.260;2023-02-03T13:09:18;44.72;;;32.03;;
45318;SDS011;31057;48.498;32.260;2023-02-03T13:13:55;51.83;;;35.17;;
45318;SDS011;31057;48.498;32.260;2023-02-03T13:16:02;48.35;;;33.90;;
45318;SDS011;31057;48.498;32.260;2023-02-03T13:20:20;56.15;;;45.80;;
45318;SDS011;31057;48.498;32.260;2023-02-03T13:22:31;56.72;;;46.17;;
45318;SDS011;31057;48.498;32.260;2023-02-03T13:29:16;41.65;;;32.22;;
45318;SDS011;31057;48.498;32.260;2023-02-03T13:41:17;45.45;;;31.08;;
45318;SDS011;31057;48.498;32.260;2023-02-03T13:43:31;38.28;;;28.58;;
45318;SDS011;31057;48.498;32.260;2023-02-03T13:45:43;42.42;;;29.77;;
45318;SDS011;31057;48.498;32.260;2023-02-03T13:47:52;40.38;;;30.42;;
45318;SDS011;31057;48.498;32.260;2023-02-03T13:50:03;49.78;;;38.05;;
45318;SDS011;31057;48.498;32.260;2023-02-03T13:52:22;53.80;;;40.72;;
45318;SDS011;31057;48.498;32.260;2023-02-03T13:56:36;47.90;;;34.25;;
45318;SDS011;31057;48.498;32.260;2023-02-03T13:58:40;57.70;;;36.90;;
45318;SDS011;31057;48.498;32.260;2023-02-03T16:13:52;18.33;;;11.52;;
45318;SDS011;31057;48.498;32.260;2023-02-03T16:18:21;29.30;;;16.25;;
45318;SDS011;31057;48.498;32.260;2023-02-03T16:20:24;25.17;;;16.02;;
45318;SDS011;31057;48.498;32.260;2023-02-03T16:22:29;27.92;;;16.33;;
45318;SDS011;31057;48.498;32.260;2023-02-03T16:26:43;32.65;;;18.70;;
45318;SDS011;31057;48.498;32.260;2023-02-03T16:31:26;51.60;;;25.27;;
45318;SDS011;31057;48.498;32.260;2023-02-03T16:33:48;63.50;;;25.58;;
45318;SDS011;31057;48.498;32.260;2023-02-03T16:36:11;84.95;;;37.15;;
45318;SDS011;31057;48.498;32.260;2023-02-03T16:40:53;63.80;;;27.08;;
45318;SDS011;31057;48.498;32.260;2023-02-03T16:43:14;38.33;;;19.90;;
45318;SDS011;31057;48.498;32.260;2023-02-03T16:45:35;61.00;;;26.70;;
45318;SDS011;31057;48.498;32.260;2023-02-03T16:47:56;24.38;;;14.85;;
45318;SDS011;31057;48.498;32.260;2023-02-03T16:50:18;41.35;;;20.10;;
45318;SDS011;31057;48.498;32.260;2023-02-03T16:52:41;38.95;;;19.33;;
45318;SDS011;31057;48.498;32.260;2023-02-03T16:54:45;46.03;;;22.88;;
45318;SDS011;31057;48.498;32.260;2023-02-03T16:56:47;46.75;;;23.33;;
45318;SDS011;31057;48.498;32.260;2023-02-03T16:58:51;32.20;;;17.42;;
45318;SDS011;31057;48.498;32.260;2023-02-03T17:00:53;44.53;;;23.00;;
45318;SDS011;31057;48.498;32.260;2023-02-03T17:02:55;50.50;;;25.55;;
45318;SDS011;31057;48.498;32.260;2023-02-03T17:04:59;46.60;;;21.45;;
45318;SDS011;31057;48.498;32.260;2023-02-03T17:07:03;33.60;;;20.33;;
45318;SDS011;31057;48.498;32.260;2023-02-03T17:09:06;53.20;;;28.20;;
45318;SDS011;31057;48.498;32.260;2023-02-03T17:11:13;42.17;;;22.23;;
45318;SDS011;31057;48.498;32.260;2023-02-03T17:13:18;40.30;;;20.77;;
45318;SDS011;31057;48.498;32.260;2023-02-03T17:15:21;53.17;;;24.13;;
45318;SDS011;31057;48.498;32.260;2023-02-03T17:17:23;60.20;;;27.00;;
45318;SDS011;31057;48.498;32.260;2023-02-03T17:19:25;67.47;;;29.20;;
45318;SDS011;31057;48.498;32.260;2023-02-03T17:21:28;63.92;;;30.67;;
45318;SDS011;31057;48.498;32.260;2023-02-03T17:23:31;39.55;;;19.90;;
45318;SDS011;31057;48.498;32.260;2023-02-03T17:27:38;31.63;;;17.40;;
45318;SDS011;31057;48.498;32.260;2023-02-03T17:29:40;27.90;;;17.80;;
45318;SDS011;31057;48.498;32.260;2023-02-03T17:33:45;25.25;;;17.25;;
45318;SDS011;31057;48.498;32.260;2023-02-03T17:38:11;30.27;;;20.50;;
45318;SDS011;31057;48.498;32.260;2023-02-03T17:40:17;24.17;;;18.40;;
45318;SDS011;31057;48.498;32.260;2023-02-03T17:42:36;27.30;;;18.15;;
45318;SDS011;31057;48.498;32.260;2023-02-03T17:44:56;21.35;;;15.38;;
45318;SDS011;31057;48.498;32.260;2023-02-03T17:47:15;25.83;;;17.48;;
45318;SDS011;31057;48.498;32.260;2023-02-03T17:49:35;26.25;;;16.77;;
45318;SDS011;31057;48.498;32.260;2023-02-03T17:51:54;24.95;;;15.85;;
45318;SDS011;31057;48.498;32.260;2023-02-03T17:54:14;24.25;;;15.32;;
45318;SDS011;31057;48.498;32.260;2023-02-03T17:56:18;25.00;;;16.92;;
45318;SDS011;31057;48.498;32.260;2023-02-03T17:58:24;23.90;;;17.35;;
45318;SDS011;31057;48.498;32.260;2023-02-03T18:02:28;22.58;;;15.07;;
45318;SDS011;31057;48.498;32.260;2023-02-03T18:06:32;23.60;;;15.93;;
45318;SDS011;31057;48.498;32.260;2023-02-03T18:08:35;23.02;;;15.75;;
45318;SDS011;31057;48.498;32.260;2023-02-03T18:10:37;23.75;;;15.05;;
45318;SDS011;31057;48.498;32.260;2023-02-03T18:12:39;28.00;;;17.55;;
45318;SDS011;31057;48.498;32.260;2023-02-03T18:14:42;26.25;;;18.27;;
45318;SDS011;31057;48.498;32.260;2023-02-03T18:16:44;27.70;;;18.65;;
45318;SDS011;31057;48.498;32.260;2023-02-03T18:18:46;27.23;;;18.25;;
45318;SDS011;31057;48.498;32.260;2023-02-03T18:20:49;28.92;;;17.73;;
45318;SDS011;31057;48.498;32.260;2023-02-03T18:22:53;28.23;;;17.20;;
45318;SDS011;31057;48.498;32.260;2023-02-03T18:24:55;27.85;;;18.33;;
45318;SDS011;31057;48.498;32.260;2023-02-03T18:26:57;27.92;;;18.30;;
45318;SDS011;31057;48.498;32.260;2023-02-03T18:29:01;37.55;;;23.40;;
45318;SDS011;31057;48.498;32.260;2023-02-03T18:31:10;47.38;;;25.52;;
45318;SDS011;31057;48.498;32.260;2023-02-03T18:33:16;37.65;;;23.00;;
45318;SDS011;31057;48.498;32.260;2023-02-03T18:35:18;30.65;;;18.75;;
45318;SDS011;31057;48.498;32.260;2023-02-03T18:39:22;22.90;;;14.35;;
45318;SDS011;31057;48.498;32.260;2023-02-03T18:41:25;23.77;;;15.68;;
45318;SDS011;31057;48.498;32.260;2023-02-03T18:43:27;21.20;;;13.68;;
45318;SDS011;31057;48.498;32.260;2023-02-03T18:45:29;25.83;;;16.25;;
45318;SDS011;31057;48.498;32.260;2023-02-03T18:47:34;23.50;;;16.45;;
45318;SDS011;31057;48.498;32.260;2023-02-03T18:49:37;24.63;;;16.15;;
45318;SDS011;31057;48.498;32.260;2023-02-03T18:51:41;25.13;;;16.23;;
45318;SDS011;31057;48.498;32.260;2023-02-03T18:53:43;22.67;;;15.57;;
45318;SDS011;31057;48.498;32.260;2023-02-03T18:55:47;21.65;;;15.15;;
45318;SDS011;31057;48.498;32.260;2023-02-03T18:57:49;22.00;;;14.50;;
45318;SDS011;31057;48.498;32.260;2023-02-03T18:59:51;21.67;;;16.27;;
45318;SDS011;31057;48.498;32.260;2023-02-03T19:01:53;19.80;;;13.43;;
45318;SDS011;31057;48.498;32.260;2023-02-03T19:03:56;24.20;;;14.70;;
45318;SDS011;31057;48.498;32.260;2023-02-03T19:05:59;22.85;;;14.38;;
45318;SDS011;31057;48.498;32.260;2023-02-03T19:08:02;24.13;;;16.33;;
45318;SDS011;31057;48.498;32.260;2023-02-03T19:10:04;24.98;;;16.48;;
45318;SDS011;31057;48.498;32.260;2023-02-03T19:12:06;24.77;;;15.85;;
45318;SDS011;31057;48.498;32.260;2023-02-03T19:14:08;23.77;;;15.60;;
45318;SDS011;31057;48.498;32.260;2023-02-03T19:16:14;26.95;;;17.85;;
45318;SDS011;31057;48.498;32.260;2023-02-03T19:18:17;28.52;;;18.15;;
45318;SDS011;31057;48.498;32.260;2023-02-03T19:20:21;25.92;;;17.77;;
45318;SDS011;31057;48.498;32.260;2023-02-03T19:24:25;22.10;;;14.95;;
45318;SDS011;31057;48.498;32.260;2023-02-03T19:26:27;22.02;;;14.60;;
45318;SDS011;31057;48.498;32.260;2023-02-03T19:30:34;28.90;;;16.48;;
45318;SDS011;31057;48.498;32.260;2023-02-03T19:32:36;31.92;;;22.75;;
45318;SDS011;31057;48.498;32.260;2023-02-03T19:34:38;44.67;;;31.27;;
45318;SDS011;31057;48.498;32.260;2023-02-03T19:36:41;49.05;;;32.85;;
45318;SDS011;31057;48.498;32.260;2023-02-03T19:38:43;66.50;;;46.38;;
45318;SDS011;31057;48.498;32.260;2023-02-03T19:42:47;64.50;;;45.50;;
45318;SDS011;31057;48.498;32.260;2023-02-03T19:44:50;64.40;;;46.90;;
45318;SDS011;31057;48.498;32.260;2023-02-03T19:48:53;90.50;;;60.47;;
45318;SDS011;31057;48.498;32.260;2023-02-03T19:52:57;100.50;;;67.03;;
45318;SDS011;31057;48.498;32.260;2023-02-03T19:54:59;91.25;;;63.83;;
45318;SDS011;31057;48.498;32.260;2023-02-03T19:59:03;94.07;;;66.65;;
45318;SDS011;31057;48.498;32.260;2023-02-03T20:01:06;85.35;;;60.40;;
45318;SDS011;31057;48.498;32.260;2023-02-03T20:03:08;97.45;;;65.15;;
45318;SDS011;31057;48.498;32.260;2023-02-03T20:05:10;93.80;;;61.15;;
45318;SDS011;31057;48.498;32.260;2023-02-03T20:07:13;85.05;;;57.60;;
45318;SDS011;31057;48.498;32.260;2023-02-03T20:11:17;86.32;;;64.53;;
45318;SDS011;31057;48.498;32.260;2023-02-03T20:13:22;81.82;;;59.67;;
45318;SDS011;31057;48.498;32.260;2023-02-03T20:19:29;67.75;;;46.65;;
45318;SDS011;31057;48.498;32.260;2023-02-03T20:21:30;60.60;;;43.97;;
45318;SDS011;31057;48.498;32.260;2023-02-03T20:23:33;57.53;;;43.90;;
45318;SDS011;31057;48.498;32.260;2023-02-03T20:25:35;60.35;;;43.63;;
45318;SDS011;31057;48.498;32.260;2023-02-03T20:27:37;64.63;;;45.83;;
45318;SDS011;31057;48.498;32.260;2023-02-03T20:29:39;62.00;;;46.97;;
45318;SDS011;31057;48.498;32.260;2023-02-03T20:31:41;60.47;;;45.03;;
45318;SDS011;31057;48.498;32.260;2023-02-03T20:33:44;63.88;;;47.08;;
45318;SDS011;31057;48.498;32.260;2023-02-03T20:35:46;73.10;;;54.95;;
45318;SDS011;31057;48.498;32.260;2023-02-03T20:39:50;73.90;;;50.33;;
45318;SDS011;31057;48.498;32.260;2023-02-03T20:41:51;69.90;;;45.72;;
45318;SDS011;31057;48.498;32.260;2023-02-03T20:43:54;56.75;;;38.95;;
45318;SDS011;31057;48.498;32.260;2023-02-03T20:45:56;51.90;;;37.22;;
45318;SDS011;31057;48.498;32.260;2023-02-03T20:47:58;45.88;;;31.63;;
45318;SDS011;31057;48.498;32.260;2023-02-03T20:50:00;46.83;;;32.30;;
45318;SDS011;31057;48.498;32.260;2023-02-03T20:52:05;46.40;;;31.55;;
45318;SDS011;31057;48.498;32.260;2023-02-03T20:54:20;37.83;;;28.50;;
45318;SDS011;31057;48.498;32.260;2023-02-03T20:56:23;43.08;;;28.60;;
45318;SDS011;31057;48.498;32.260;2023-02-03T20:58:27;43.40;;;32.47;;
45318;SDS011;31057;48.498;32.260;2023-02-03T21:00:31;47.95;;;30.92;;
45318;SDS011;31057;48.498;32.260;2023-02-03T21:02:34;47.17;;;33.22;;
45318;SDS011;31057;48.498;32.260;2023-02-03T21:04:55;68.40;;;44.85;;
45318;SDS011;31057;48.498;32.260;2023-02-03T21:06:59;75.53;;;45.90;;
45318;SDS011;31057;48.498;32.260;2023-02-03T21:09:14;84.15;;;47.05;;
45318;SDS011;31057;48.498;32.260;2023-02-03T21:11:19;82.70;;;49.47;;
45318;SDS011;31057;48.498;32.260;2023-02-03T21:13:27;72.80;;;45.88;;
45318;SDS011;31057;48.498;32.260;2023-02-03T21:15:33;83.72;;;51.90;;
45318;SDS011;31057;48.498;32.260;2023-02-03T21:17:35;88.57;;;50.50;;
45318;SDS011;31057;48.498;32.260;2023-02-03T21:21:39;91.53;;;61.00;;
45318;SDS011;31057;48.498;32.260;2023-02-03T21:23:46;95.53;;;57.22;;
45318;SDS011;31057;48.498;32.260;2023-02-03T21:25:49;102.80;;;63.03;;
45318;SDS011;31057;48.498;32.260;2023-02-03T21:29:53;81.88;;;53.08;;
45318;SDS011;31057;48.498;32.260;2023-02-03T21:31:57;80.78;;;53.22;;
45318;SDS011;31057;48.498;32.260;2023-02-03T21:34:01;85.45;;;54.42;;
45318;SDS011;31057;48.498;32.260;2023-02-03T21:36:15;73.22;;;50.58;;
45318;SDS011;31057;48.498;32.260;2023-02-03T21:40:32;59.78;;;40.75;;
45318;SDS011;31057;48.498;32.260;2023-02-03T21:42:35;64.72;;;41.30;;
45318;SDS011;31057;48.498;32.260;2023-02-03T21:44:43;66.28;;;42.97;;
45318;SDS011;31057;48.498;32.260;2023-02-03T21:46:45;70.75;;;46.90;;
45318;SDS011;31057;48.498;32.260;2023-02-03T21:48:48;69.90;;;47.60;;
45318;SDS011;31057;48.498;32.260;2023-02-03T21:50:52;71.13;;;43.30;;
45318;SDS011;31057;48.498;32.260;2023-02-03T21:53:16;81.70;;;48.28;;
45318;SDS011;31057;48.498;32.260;2023-02-03T21:55:22;71.20;;;42.35;;
45318;SDS011;31057;48.498;32.260;2023-02-03T21:57:23;76.70;;;44.78;;
45318;SDS011;31057;48.498;32.260;2023-02-03T21:59:26;77.40;;;46.22;;
45318;SDS011;31057;48.498;32.260;2023-02-03T22:01:37;68.97;;;45.53;;
45318;SDS011;31057;48.498;32.260;2023-02-03T22:03:39;72.93;;;44.55;;
45318;SDS011;31057;48.498;32.260;2023-02-03T22:05:45;72.00;;;40.63;;
45318;SDS011;31057;48.498;32.260;2023-02-03T22:07:48;65.10;;;39.72;;
45318;SDS011;31057;48.498;32.260;2023-02-03T22:11:53;59.38;;;34.95;;
45318;SDS011;31057;48.498;32.260;2023-02-03T22:15:57;58.10;;;36.08;;
45318;SDS011;31057;48.498;32.260;2023-02-03T22:20:01;50.30;;;33.20;;
45318;SDS011;31057;48.498;32.260;2023-02-03T22:24:05;54.83;;;30.75;;
45318;SDS011;31057;48.498;32.260;2023-02-03T22:26:07;44.17;;;27.98;;
45318;SDS011;31057;48.498;32.260;2023-02-03T22:28:10;42.80;;;27.52;;
45318;SDS011;31057;48.498;32.260;2023-02-03T22:30:13;58.80;;;34.08;;
45318;SDS011;31057;48.498;32.260;2023-02-03T22:32:16;46.85;;;27.52;;
45318;SDS011;31057;48.498;32.260;2023-02-03T22:36:20;42.90;;;27.02;;
45318;SDS011;31057;48.498;32.260;2023-02-03T22:38:24;40.70;;;24.83;;
45318;SDS011;31057;48.498;32.260;2023-02-03T22:40:26;33.65;;;21.63;;
45318;SDS011;31057;48.498;32.260;2023-02-03T22:42:28;28.33;;;19.50;;
45318;SDS011;31057;48.498;32.260;2023-02-03T22:44:30;31.73;;;21.02;;
45318;SDS011;31057;48.498;32.260;2023-02-03T22:46:32;32.58;;;20.50;;
45318;SDS011;31057;48.498;32.260;2023-02-03T22:50:36;32.95;;;19.65;;
45318;SDS011;31057;48.498;32.260;2023-02-03T22:52:38;36.00;;;20.23;;
45318;SDS011;31057;48.498;32.260;2023-02-03T22:54:41;30.27;;;19.42;;
45318;SDS011;31057;48.498;32.260;2023-02-03T22:56:43;31.20;;;20.83;;
45318;SDS011;31057;48.498;32.260;2023-02-03T23:00:46;31.05;;;20.10;;
45318;SDS011;31057;48.498;32.260;2023-02-03T23:04:50;32.47;;;18.83;;
45318;SDS011;31057;48.498;32.260;2023-02-03T23:06:52;34.72;;;20.55;;
45318;SDS011;31057;48.498;32.260;2023-02-03T23:10:56;35.33;;;22.13;;
45318;SDS011;31057;48.498;32.260;2023-02-03T23:12:59;34.35;;;22.35;;
45318;SDS011;31057;48.498;32.260;2023-02-03T23:17:02;34.63;;;22.05;;
45318;SDS011;31057;48.498;32.260;2023-02-03T23:21:06;45.08;;;25.60;;
45318;SDS011;31057;48.498;32.260;2023-02-03T23:23:08;40.72;;;24.38;;
45318;SDS011;31057;48.498;32.260;2023-02-03T23:25:11;43.35;;;25.17;;
45318;SDS011;31057;48.498;32.260;2023-02-03T23:29:15;31.38;;;20.02;;
45318;SDS011;31057;48.498;32.260;2023-02-03T23:33:19;37.70;;;24.15;;
45318;SDS011;31057;48.498;32.260;2023-02-03T23:37:41;48.25;;;24.58;;
45318;SDS011;31057;48.498;32.260;2023-02-03T23:41:44;39.63;;;23.50;;
45318;SDS011;31057;48.498;32.260;2023-02-03T23:43:46;44.42;;;25.40;;
45318;SDS011;31057;48.498;32.260;2023-02-03T23:47:50;48.15;;;25.17;;
45318;SDS011;31057;48.498;32.260;2023-02-03T23:49:52;51.80;;;28.63;;
45318;SDS011;31057;48.498;32.260;2023-02-03T23:53:55;41.60;;;25.05;;
45318;SDS011;31057;48.498;32.260;2023-02-03T23:57:59;53.50;;;29.20;;
